createdAt,value
2023-03-16T00:04:13.373Z,101618.72
2023-03-16T00:09:17.645Z,101612.75
2023-03-16T00:14:20.182Z,101608.28
2023-03-16T00:19:23.297Z,101616.41
2023-03-16T00:24:27.200Z,101610.53
2023-03-16T00:29:29.738Z,101612.91
2023-03-16T00:34:34.592Z,101613.81
2023-03-16T00:39:38.481Z,101593.72
2023-03-16T00:44:42.005Z,101595.91
2023-03-16T00:49:45.514Z,101612.47
2023-03-16T00:54:52.836Z,101596.50
2023-03-16T00:59:55.419Z,101596.38
2023-03-16T01:04:58.287Z,101586.94
2023-03-16T01:10:03.153Z,101585.16
2023-03-16T01:15:06.914Z,101548.94
2023-03-16T01:20:13.115Z,101582.94
2023-03-16T01:25:18.258Z,101567.91
2023-03-16T01:30:20.966Z,101544.66
2023-03-16T01:35:23.821Z,101551.16
2023-03-16T01:40:28.737Z,101543.28
2023-03-16T01:46:14.162Z,101529.53
2023-03-16T01:51:24.431Z,101524.16
2023-03-16T01:56:34.710Z,101523.03
2023-03-16T02:01:37.909Z,101508.28
2023-03-16T02:06:40.846Z,101417.38
2023-03-16T02:11:46.074Z,101515.25
2023-03-16T02:16:50.651Z,101521.66
2023-03-16T02:22:02.649Z,101503.97
2023-03-16T02:27:11.232Z,101500.88
2023-03-16T02:32:18.839Z,101471.38
2023-03-16T02:37:24.344Z,101445.91
2023-03-16T02:42:28.547Z,101466.69
2023-03-16T02:47:39.815Z,101463.97
2023-03-16T02:52:42.450Z,101463.56
2023-03-16T02:57:45.347Z,101456.00
2023-03-16T03:02:53.038Z,101455.69
2023-03-16T03:07:55.969Z,101446.09
2023-03-16T03:13:00.119Z,101445.13
2023-03-16T03:18:05.721Z,101436.97
2023-03-16T03:23:09.736Z,101437.09
2023-03-16T03:28:12.485Z,101402.81
2023-03-16T03:33:26.303Z,101337.84
2023-03-16T03:38:29.071Z,101434.00
2023-03-16T03:43:31.929Z,101433.13
2023-03-16T03:48:36.494Z,101429.63
2023-03-16T03:53:39.353Z,101374.88
2023-03-16T03:58:50.817Z,101419.09
2023-03-16T04:04:06.710Z,101429.13
2023-03-16T04:09:12.112Z,101424.47
2023-03-16T04:14:17.500Z,101417.19
2023-03-16T04:19:22.534Z,101393.81
2023-03-16T04:24:26.275Z,101395.72
2023-03-16T04:29:33.024Z,101398.59
2023-03-16T04:34:37.053Z,101400.31
2023-03-16T04:39:44.503Z,101374.50
2023-03-16T04:44:48.069Z,101389.94
2023-03-16T04:49:52.314Z,101330.94
2023-03-16T04:54:56.016Z,101380.25
2023-03-16T04:59:58.870Z,101387.31
2023-03-16T05:05:16.151Z,101391.47
2023-03-16T05:10:20.255Z,101381.69
2023-03-16T05:15:23.271Z,101338.34
2023-03-16T05:20:38.033Z,101381.25
2023-03-16T05:25:41.834Z,101377.50
2023-03-16T05:30:46.694Z,101381.59
2023-03-16T05:35:57.543Z,101379.78
2023-03-16T05:41:05.894Z,101355.69
2023-03-16T05:46:25.992Z,101395.66
2023-03-16T05:51:30.710Z,101383.19
2023-03-16T05:56:33.922Z,101378.69
2023-03-16T06:01:37.606Z,101383.81
2023-03-16T06:06:42.709Z,101386.00
2023-03-16T06:11:55.301Z,101387.56
2023-03-16T06:16:58.029Z,101323.38
2023-03-16T06:22:02.656Z,101149.59
2023-03-16T06:27:06.286Z,101395.19
2023-03-16T06:32:19.878Z,101399.63
2023-03-16T06:37:24.020Z,101363.22
2023-03-16T06:42:27.589Z,101310.81
2023-03-16T06:47:31.738Z,101390.00
2023-03-16T06:52:36.245Z,101393.72
2023-03-16T06:57:39.315Z,101247.03
2023-03-16T07:02:43.734Z,101361.63
2023-03-16T07:07:50.021Z,101275.41
2023-03-16T07:12:52.747Z,101401.88
2023-03-16T07:17:55.576Z,101385.56
2023-03-16T07:23:03.285Z,101288.47
2023-03-16T07:28:06.698Z,101386.69
2023-03-16T07:33:15.728Z,101349.47
2023-03-16T07:38:22.318Z,101343.22
2023-03-16T07:43:25.301Z,101406.06
2023-03-16T07:48:32.454Z,101337.88
2023-03-16T07:53:40.343Z,101395.63
2023-03-16T07:58:51.563Z,101248.81
2023-03-16T08:03:54.561Z,101395.53
2023-03-16T08:08:59.107Z,101397.56
2023-03-16T08:14:08.672Z,101327.59
2023-03-16T08:19:38.688Z,101398.09
2023-03-16T08:24:45.080Z,101378.19
2023-03-16T08:29:53.766Z,101320.81
2023-03-16T08:35:00.396Z,101391.88
2023-03-16T08:40:10.313Z,101399.00
2023-03-16T08:45:14.952Z,101398.72
2023-03-16T08:50:20.751Z,101149.56
2023-03-16T08:55:24.902Z,101408.03
2023-03-16T09:00:31.393Z,101224.50
2023-03-16T09:05:35.130Z,101401.16
2023-03-16T09:10:39.238Z,101394.50
2023-03-16T09:15:41.837Z,101325.41
2023-03-16T09:20:44.400Z,101398.97
2023-03-16T09:25:48.382Z,101313.72
2023-03-16T09:30:51.255Z,101387.03
2023-03-16T09:35:54.272Z,101364.22
2023-03-16T09:41:01.577Z,101373.31
2023-03-16T09:46:12.195Z,101362.03
2023-03-16T09:51:21.610Z,101283.22
2023-03-16T09:56:32.912Z,101301.84
2023-03-16T10:01:44.710Z,101263.75
2023-03-16T10:06:56.261Z,101319.69
2023-03-16T10:12:03.854Z,101262.31
2023-03-16T10:17:15.099Z,101238.88
2023-03-16T10:22:23.293Z,101326.06
2023-03-16T10:27:31.497Z,101236.22
2023-03-16T10:32:37.733Z,101268.13
2023-03-16T10:37:40.633Z,101312.75
2023-03-16T10:42:45.259Z,101288.63
2023-03-16T10:47:48.061Z,101276.28
2023-03-16T10:52:51.734Z,101286.72
2023-03-16T10:57:56.895Z,101287.78
2023-03-16T11:03:01.301Z,101281.63
2023-03-16T11:08:15.827Z,101282.78
2023-03-16T11:13:22.642Z,101267.97
2023-03-16T11:18:31.648Z,101093.81
2023-03-16T11:23:58.703Z,100981.53
2023-03-16T11:29:10.931Z,101222.19
2023-03-16T11:34:17.691Z,101241.66
2023-03-16T11:39:32.143Z,101220.16
2023-03-16T11:44:43.534Z,101229.88
2023-03-16T11:49:58.492Z,101213.97
2023-03-16T11:55:15.678Z,101216.25
2023-03-16T12:00:32.198Z,101122.81
2023-03-16T12:05:46.107Z,101193.19
2023-03-16T12:10:56.301Z,101176.06
2023-03-16T12:16:12.793Z,101180.09
2023-03-16T12:21:20.414Z,101175.75
2023-03-16T12:26:29.066Z,100919.75
2023-03-16T12:31:41.422Z,100961.88
2023-03-16T12:37:19.644Z,101083.25
2023-03-16T12:42:52.892Z,101138.13
2023-03-16T12:48:06.087Z,101136.59
2023-03-16T12:53:08.864Z,101070.59
2023-03-16T12:58:12.750Z,101079.03
2023-03-16T13:03:23.334Z,101076.19
2023-03-16T13:08:27.673Z,101052.81
2023-03-16T13:13:32.832Z,101111.72
2023-03-16T13:18:41.702Z,101065.38
2023-03-16T13:23:55.417Z,101026.84
2023-03-16T13:28:58.282Z,101077.50
2023-03-16T13:34:06.043Z,101086.63
2023-03-16T13:39:16.607Z,101065.47
2023-03-16T13:44:19.532Z,101022.75
2023-03-16T13:49:24.162Z,101040.00
2023-03-16T13:54:29.813Z,101007.19
2023-03-16T13:59:32.545Z,100951.28
2023-03-16T14:04:36.647Z,101012.91
2023-03-16T14:09:39.780Z,100679.38
2023-03-16T14:14:43.115Z,100993.78
2023-03-16T14:19:53.142Z,100988.03
2023-03-16T14:25:00.755Z,100985.72
2023-03-16T14:30:19.499Z,100752.63
2023-03-16T14:35:27.987Z,100882.66
2023-03-16T14:40:33.254Z,100959.31
2023-03-16T14:45:37.929Z,100877.09
2023-03-16T14:51:06.904Z,100765.44
2023-03-16T14:56:19.979Z,100936.59
2023-03-16T15:01:25.511Z,100923.81
2023-03-16T15:06:31.234Z,100703.97
2023-03-16T15:11:34.363Z,100764.91
2023-03-16T15:16:44.004Z,100652.22
2023-03-16T15:22:07.548Z,100659.31
2023-03-16T15:27:27.869Z,100672.81
2023-03-16T15:32:54.350Z,100644.50
2023-03-16T15:38:35.985Z,100918.66
2023-03-16T15:43:41.809Z,100721.53
2023-03-16T15:49:22.775Z,100885.38
2023-03-16T15:55:17.248Z,100895.97
2023-03-16T16:01:04.906Z,100654.25
2023-03-16T16:07:12.616Z,100867.16
2023-03-16T16:13:16.107Z,100834.25
2023-03-16T16:24:13.311Z,100622.44
2023-03-16T16:29:45.188Z,100551.19
2023-03-16T16:35:25.963Z,100851.31
2023-03-16T16:40:37.523Z,100831.47
2023-03-16T16:45:47.557Z,100404.13
2023-03-16T16:50:54.013Z,100838.72
2023-03-16T16:56:03.949Z,100410.63
2023-03-16T17:01:07.934Z,100675.63
2023-03-16T17:06:27.733Z,100853.44
2023-03-16T17:11:38.165Z,100790.22
2023-03-16T17:16:43.159Z,100831.25
2023-03-16T17:28:52.237Z,100831.38
2023-03-16T17:34:46.106Z,100552.94
2023-03-16T17:40:29.136Z,100556.72
2023-03-16T17:46:37.498Z,100851.56
2023-03-16T17:52:08.257Z,100317.50
2023-03-16T18:04:32.781Z,100382.81
2023-03-16T18:09:44.000Z,100751.03
2023-03-16T18:15:02.442Z,100837.97
2023-03-16T18:20:37.882Z,100846.69
2023-03-16T18:25:42.141Z,100723.28
2023-03-16T18:30:47.592Z,100822.53
2023-03-16T18:35:59.694Z,100742.63
2023-03-16T18:41:14.314Z,100688.81
2023-03-16T18:46:28.470Z,100749.94
2023-03-16T18:51:32.711Z,100737.00
2023-03-16T18:56:36.090Z,100760.97
2023-03-16T19:01:43.776Z,100633.06
2023-03-16T19:06:51.950Z,100814.00
2023-03-16T19:11:59.760Z,100840.81
2023-03-16T19:17:03.862Z,100826.91
2023-03-16T19:22:16.755Z,100772.63
2023-03-16T19:27:23.882Z,100639.66
2023-03-16T19:32:32.805Z,100836.09
2023-03-16T19:37:42.186Z,100795.47
2023-03-16T19:42:47.169Z,100834.47
2023-03-16T19:47:51.851Z,100838.94
2023-03-16T19:53:00.316Z,100556.97
2023-03-16T19:58:07.471Z,100556.94
2023-03-16T20:03:12.781Z,100588.59
2023-03-16T20:08:28.995Z,100756.63
2023-03-16T20:13:34.094Z,100717.72
2023-03-16T20:18:39.546Z,100713.69
2023-03-16T20:23:50.847Z,100770.16
2023-03-16T20:28:54.822Z,100753.44
2023-03-16T20:33:58.705Z,100628.41
2023-03-16T20:39:11.195Z,100617.16
2023-03-16T20:44:30.433Z,100715.59
2023-03-16T20:49:36.236Z,100437.91
2023-03-16T20:54:42.485Z,100533.59
2023-03-16T20:59:47.852Z,100724.22
2023-03-16T21:04:50.659Z,100724.38
2023-03-16T21:09:55.176Z,100519.00
2023-03-16T21:15:06.338Z,100656.31
2023-03-16T21:20:17.332Z,100605.63
2023-03-16T21:25:24.081Z,100470.78
2023-03-16T21:30:30.479Z,100686.53
2023-03-16T21:35:36.988Z,100686.94
2023-03-16T21:40:41.011Z,100581.97
2023-03-16T21:45:45.299Z,100465.41
2023-03-16T21:50:50.122Z,100669.25
2023-03-16T21:55:55.480Z,100682.38
2023-03-16T22:00:59.219Z,100659.94
2023-03-16T22:06:09.077Z,100650.09
2023-03-16T22:11:21.698Z,100648.41
2023-03-16T22:16:26.773Z,100635.06
